createdAt,value
2022-10-29T00:02:20.250Z,92.36
2022-10-29T00:05:04.107Z,92.18
2022-10-29T00:07:30.575Z,92.49
2022-10-29T00:09:56.962Z,92.41
2022-10-29T00:12:23.524Z,92.32
2022-10-29T00:14:49.879Z,92.03
2022-10-29T00:17:31.691Z,92.24
2022-10-29T00:19:59.809Z,92.12
2022-10-29T00:22:38.537Z,92.30
2022-10-29T00:25:14.297Z,91.89
2022-10-29T00:27:40.722Z,91.73
2022-10-29T00:30:08.814Z,92.48
2022-10-29T00:32:40.301Z,92.14
2022-10-29T00:35:06.843Z,92.33
2022-10-29T00:37:37.392Z,92.28
2022-10-29T00:40:04.828Z,92.54
2022-10-29T00:42:31.329Z,92.50
2022-10-29T00:44:57.749Z,92.95
2022-10-29T00:47:32.078Z,92.35
2022-10-29T00:50:13.131Z,92.58
2022-10-29T00:52:50.739Z,92.25
2022-10-29T00:55:18.378Z,92.42
2022-10-29T00:57:52.695Z,92.31
2022-10-29T01:00:28.062Z,92.50
2022-10-29T01:02:54.920Z,92.24
2022-10-29T01:05:41.145Z,92.43
2022-10-29T01:08:11.571Z,92.71
2022-10-29T01:11:18.966Z,92.73
2022-10-29T01:14:23.216Z,92.56
2022-10-29T01:17:29.018Z,92.43
2022-10-29T01:20:23.034Z,92.52
2022-10-29T01:23:11.964Z,92.21
2022-10-29T01:25:56.039Z,91.97
2022-10-29T01:29:01.401Z,92.31
2022-10-29T01:31:41.395Z,92.29
2022-10-29T01:34:51.723Z,92.09
2022-10-29T01:37:35.385Z,92.13
2022-10-29T01:40:07.351Z,92.12
2022-10-29T01:42:53.614Z,92.05
2022-10-29T01:45:36.594Z,92.35
2022-10-29T01:48:34.111Z,92.34
2022-10-29T01:51:08.147Z,92.03
2022-10-29T01:53:37.480Z,91.87
2022-10-29T01:56:04.363Z,92.06
2022-10-29T01:58:32.939Z,92.29
2022-10-29T02:01:37.144Z,92.23
2022-10-29T02:04:19.868Z,92.44
2022-10-29T02:06:58.431Z,92.39
2022-10-29T02:09:32.445Z,92.29
2022-10-29T02:12:09.122Z,92.41
2022-10-29T02:14:41.367Z,92.58
2022-10-29T02:17:18.712Z,92.44
2022-10-29T02:19:45.190Z,92.41
2022-10-29T02:22:15.771Z,92.46
2022-10-29T02:24:47.379Z,92.41
2022-10-29T02:27:26.075Z,92.77
2022-10-29T02:29:52.576Z,92.73
2022-10-29T02:32:19.034Z,92.67
2022-10-29T02:34:45.467Z,92.81
2022-10-29T02:37:13.005Z,92.54
2022-10-29T02:39:39.452Z,92.88
2022-10-29T02:42:15.228Z,92.66
2022-10-29T02:44:41.647Z,92.70
2022-10-29T02:47:08.085Z,92.67
2022-10-29T02:49:34.633Z,92.68
2022-10-29T02:52:13.429Z,92.94
2022-10-29T02:55:10.874Z,93.22
2022-10-29T02:57:37.617Z,93.23
2022-10-29T03:00:05.371Z,93.53
2022-10-29T03:03:13.394Z,93.33
2022-10-29T03:05:39.783Z,93.30
2022-10-29T03:08:09.421Z,93.31
2022-10-29T03:10:36.983Z,93.61
2022-10-29T03:13:03.446Z,93.63
2022-10-29T03:15:45.479Z,93.70
2022-10-29T03:18:12.241Z,93.84
2022-10-29T03:20:38.821Z,93.86
2022-10-29T03:23:05.292Z,93.94
2022-10-29T03:25:56.070Z,94.28
2022-10-29T03:28:30.772Z,94.40
2022-10-29T03:30:58.517Z,94.39
2022-10-29T03:33:28.806Z,94.53
2022-10-29T03:35:57.280Z,94.38
2022-10-29T03:38:31.231Z,94.73
2022-10-29T03:41:14.436Z,94.98
2022-10-29T03:43:41.046Z,94.88
2022-10-29T03:46:09.546Z,95.21
2022-10-29T03:48:51.458Z,94.76
2022-10-29T03:51:18.891Z,95.11
2022-10-29T03:53:58.632Z,95.19
2022-10-29T03:56:26.046Z,95.14
2022-10-29T03:58:52.528Z,95.22
2022-10-29T04:01:19.055Z,95.29
2022-10-29T04:03:48.703Z,95.35
2022-10-29T04:06:16.209Z,95.05
2022-10-29T04:08:55.143Z,94.88
2022-10-29T04:11:22.446Z,95.18
2022-10-29T04:13:53.448Z,94.83
2022-10-29T04:16:20.060Z,95.28
2022-10-29T04:18:52.271Z,95.42
2022-10-29T04:30:24.887Z,94.68
2022-10-29T04:33:02.385Z,95.04
2022-10-29T04:35:29.264Z,94.79
2022-10-29T04:37:55.709Z,94.60
2022-10-29T04:40:23.995Z,94.92
2022-10-29T04:42:54.767Z,94.67
2022-10-29T04:45:51.064Z,94.74
2022-10-29T04:48:17.621Z,94.46
2022-10-29T04:50:44.017Z,94.37
2022-10-29T04:53:19.891Z,94.62
2022-10-29T04:55:46.362Z,94.81
2022-10-29T04:58:21.191Z,94.25
2022-10-29T05:00:47.755Z,94.39
2022-10-29T05:03:17.382Z,94.32
2022-10-29T05:05:44.002Z,94.21
2022-10-29T05:08:11.471Z,94.63
2022-10-29T05:10:39.693Z,94.61
2022-10-29T05:13:09.945Z,95.12
2022-10-29T05:15:53.550Z,94.92
2022-10-29T05:18:20.540Z,94.94
2022-10-29T05:20:46.895Z,94.82
2022-10-29T05:23:13.425Z,94.68
2022-10-29T05:25:41.514Z,94.79
2022-10-29T05:28:13.015Z,95.07
2022-10-29T05:30:45.320Z,94.73
2022-10-29T05:33:14.729Z,95.15
2022-10-29T05:35:42.350Z,94.99
2022-10-29T05:38:10.650Z,95.14
2022-10-29T05:40:40.189Z,95.32
2022-10-29T05:43:06.563Z,95.05
2022-10-29T05:45:43.653Z,94.88
2022-10-29T05:51:09.948Z,95.57
2022-10-29T05:53:36.612Z,95.56
2022-10-29T05:56:12.352Z,95.70
2022-10-29T05:59:32.757Z,95.62
2022-10-29T06:02:01.397Z,95.60
2022-10-29T06:04:27.910Z,95.30
2022-10-29T06:07:04.640Z,95.52
2022-10-29T06:09:31.078Z,95.33
2022-10-29T06:12:14.905Z,95.38
2022-10-29T06:14:54.517Z,95.56
2022-10-29T06:17:20.904Z,95.65
2022-10-29T06:19:48.298Z,95.81
2022-10-29T06:22:14.720Z,95.35
2022-10-29T06:24:46.219Z,95.81
2022-10-29T06:27:17.642Z,95.51
2022-10-29T06:29:44.031Z,95.91
2022-10-29T06:32:21.820Z,95.74
2022-10-29T06:34:49.269Z,95.60
2022-10-29T06:37:16.740Z,95.61
2022-10-29T06:39:43.162Z,95.41
2022-10-29T06:42:09.542Z,95.30
2022-10-29T06:44:37.919Z,96.00
2022-10-29T06:47:13.886Z,95.83
2022-10-29T06:49:40.276Z,95.62
2022-10-29T06:52:06.679Z,95.66
2022-10-29T06:54:48.492Z,95.58
2022-10-29T06:57:15.917Z,95.42
2022-10-29T06:59:42.263Z,95.79
2022-10-29T07:03:12.410Z,95.89
2022-10-29T07:05:38.763Z,95.82
2022-10-29T07:08:29.026Z,95.79
2022-10-29T07:10:55.411Z,95.97
2022-10-29T07:13:21.866Z,96.27
2022-10-29T07:15:58.571Z,95.81
2022-10-29T07:18:28.135Z,95.90
2022-10-29T07:21:04.750Z,96.44
2022-10-29T07:23:31.158Z,96.07
2022-10-29T07:25:57.566Z,96.21
2022-10-29T07:28:29.030Z,96.11
2022-10-29T07:31:00.192Z,95.84
2022-10-29T07:33:36.091Z,96.18
2022-10-29T07:36:06.103Z,95.85
2022-10-29T07:38:32.494Z,96.61
2022-10-29T07:41:09.220Z,96.32
2022-10-29T07:43:35.592Z,96.19
2022-10-29T07:46:05.769Z,96.36
2022-10-29T07:48:34.224Z,96.32
2022-10-29T07:51:10.774Z,96.61
2022-10-29T07:53:37.153Z,96.90
2022-10-29T07:56:03.670Z,96.94
2022-10-29T07:58:36.332Z,96.97
2022-10-29T08:01:02.930Z,97.29
2022-10-29T08:03:29.316Z,97.26
2022-10-29T08:05:58.683Z,97.67
2022-10-29T08:08:27.147Z,97.50
2022-10-29T08:10:53.697Z,97.60
2022-10-29T08:13:20.060Z,97.42
2022-10-29T08:15:52.462Z,97.67
2022-10-29T08:18:31.027Z,97.73
2022-10-29T08:20:57.538Z,97.22
2022-10-29T08:23:36.094Z,97.41
2022-10-29T08:26:02.967Z,97.87
2022-10-29T08:28:30.523Z,97.79
2022-10-29T08:30:59.638Z,97.61
2022-10-29T08:33:26.031Z,97.27
2022-10-29T08:36:03.827Z,96.98
2022-10-29T08:38:30.216Z,96.84
2022-10-29T08:41:06.858Z,96.86
2022-10-29T08:44:04.405Z,97.35
2022-10-29T08:46:43.338Z,96.61
2022-10-29T08:49:17.454Z,96.63
2022-10-29T08:51:51.302Z,96.26
2022-10-29T08:54:30.146Z,96.03
2022-10-29T08:57:23.508Z,95.21
2022-10-29T09:00:05.617Z,94.56
2022-10-29T09:02:32.016Z,94.89
2022-10-29T09:05:20.585Z,94.85
2022-10-29T09:08:28.355Z,94.78
2022-10-29T09:11:32.892Z,94.71
2022-10-29T09:14:29.428Z,94.69
2022-10-29T09:17:11.460Z,94.53
2022-10-29T09:19:57.447Z,94.64
2022-10-29T09:22:34.858Z,94.23
2022-10-29T09:25:40.310Z,94.61
2022-10-29T09:28:24.482Z,94.69
2022-10-29T09:31:02.043Z,94.93
2022-10-29T09:33:29.307Z,94.51
2022-10-29T09:36:14.636Z,94.81
2022-10-29T09:38:57.685Z,95.42
2022-10-29T09:41:32.087Z,95.56
2022-10-29T09:44:06.168Z,95.76
2022-10-29T09:46:56.914Z,95.30
2022-10-29T09:50:05.425Z,95.52
2022-10-29T09:52:39.232Z,95.62
2022-10-29T09:55:07.579Z,95.62
2022-10-29T09:57:36.182Z,95.24
2022-10-29T10:00:04.874Z,95.21
2022-10-29T10:03:33.587Z,95.39
2022-10-29T10:06:28.359Z,95.22
2022-10-29T10:09:16.922Z,95.13
2022-10-29T10:11:52.811Z,94.73
2022-10-29T10:14:21.870Z,94.80
2022-10-29T10:16:58.421Z,94.87
2022-10-29T10:19:30.975Z,94.54
2022-10-29T10:22:01.858Z,94.99
2022-10-29T10:24:38.508Z,94.44
2022-10-29T10:27:29.639Z,94.62
2022-10-29T10:30:22.909Z,94.28
2022-10-29T10:32:51.425Z,94.35
2022-10-29T10:35:32.242Z,93.81
2022-10-29T10:38:06.823Z,93.68
2022-10-29T10:40:33.295Z,93.27
2022-10-29T10:43:03.075Z,93.36
2022-10-29T10:45:59.602Z,93.53
2022-10-29T10:48:33.516Z,93.31
2022-10-29T10:51:33.804Z,93.25
2022-10-29T10:54:50.022Z,92.94
2022-10-29T10:57:22.784Z,92.99
2022-10-29T11:00:17.143Z,92.63
2022-10-29T11:02:58.032Z,92.95
2022-10-29T11:06:08.983Z,93.26
2022-10-29T11:08:43.251Z,92.67
2022-10-29T11:11:27.367Z,92.97
2022-10-29T11:13:58.739Z,92.17
2022-10-29T11:17:10.794Z,92.52
2022-10-29T11:20:18.074Z,92.19
2022-10-29T11:22:59.819Z,92.16
2022-10-29T11:25:36.025Z,91.92
2022-10-29T11:28:26.033Z,91.57
2022-10-29T11:30:59.785Z,91.49
2022-10-29T11:34:18.762Z,91.26
2022-10-29T11:40:56.203Z,91.71
2022-10-29T11:43:41.848Z,90.83
2022-10-29T11:46:46.838Z,91.53
2022-10-29T11:49:29.949Z,90.85
2022-10-29T11:52:21.991Z,91.43
2022-10-29T11:54:48.273Z,91.08
2022-10-29T11:57:22.848Z,90.33
2022-10-29T12:00:05.268Z,91.12
2022-10-29T12:03:03.128Z,91.01
2022-10-29T12:05:54.455Z,91.41
2022-10-29T12:08:42.747Z,92.11
2022-10-29T12:11:27.206Z,91.32
2022-10-29T12:14:06.199Z,91.55
2022-10-29T12:16:41.703Z,90.98
2022-10-29T12:19:40.066Z,90.63
2022-10-29T12:23:03.935Z,90.31
2022-10-29T12:26:02.102Z,90.56
2022-10-29T12:28:45.873Z,89.37
2022-10-29T12:31:39.027Z,88.87
2022-10-29T12:34:10.287Z,88.80
2022-10-29T12:37:20.373Z,88.28
2022-10-29T12:39:56.202Z,87.81
2022-10-29T12:42:39.786Z,87.76
2022-10-29T12:45:26.964Z,87.86
2022-10-29T12:48:08.033Z,87.62
2022-10-29T12:51:03.875Z,87.00
2022-10-29T12:53:49.142Z,86.78
2022-10-29T12:56:30.580Z,87.10
2022-10-29T12:59:17.581Z,87.68
2022-10-29T13:02:13.159Z,87.13
2022-10-29T13:04:34.132Z,87.12
2022-10-29T13:10:25.105Z,87.09
2022-10-29T13:13:07.136Z,88.12
2022-10-29T13:15:44.311Z,87.80
2022-10-29T13:18:58.363Z,88.48
2022-10-29T13:22:11.704Z,88.54
2022-10-29T13:24:38.182Z,88.79
2022-10-29T13:27:38.718Z,89.59
2022-10-29T13:30:33.643Z,89.68
2022-10-29T13:33:00.390Z,89.77
2022-10-29T13:35:27.302Z,89.79
2022-10-29T13:38:10.443Z,89.73
2022-10-29T13:40:56.337Z,89.77
2022-10-29T13:43:23.302Z,90.12
2022-10-29T13:46:01.459Z,90.19
2022-10-29T13:48:33.943Z,90.51
2022-10-29T13:51:27.969Z,90.66
2022-10-29T13:54:16.092Z,90.35
2022-10-29T13:56:51.746Z,90.72
2022-10-29T13:59:30.351Z,90.60
2022-10-29T14:03:01.212Z,90.56
2022-10-29T14:06:09.677Z,90.57
2022-10-29T14:08:49.787Z,91.11
2022-10-29T14:11:50.381Z,90.96
2022-10-29T14:14:57.376Z,91.44
2022-10-29T14:17:30.482Z,91.50
2022-10-29T14:19:56.946Z,92.00
2022-10-29T14:22:29.860Z,91.27
2022-10-29T14:24:57.118Z,91.76
2022-10-29T14:27:23.501Z,91.77
2022-10-29T14:29:53.038Z,92.20
2022-10-29T14:32:23.146Z,91.97
2022-10-29T14:34:51.037Z,92.42
2022-10-29T14:37:44.670Z,92.29
2022-10-29T14:40:30.511Z,92.18
2022-10-29T14:43:05.465Z,92.40
2022-10-29T14:45:32.354Z,92.88
2022-10-29T14:48:10.264Z,92.77
2022-10-29T14:50:45.000Z,92.71
2022-10-29T14:53:40.778Z,92.51
2022-10-29T14:56:11.325Z,92.82
2022-10-29T14:58:38.384Z,92.78
2022-10-29T15:02:32.285Z,92.71
2022-10-29T15:05:03.135Z,92.62
2022-10-29T15:07:35.497Z,92.87
2022-10-29T15:10:18.139Z,92.91
2022-10-29T15:12:52.643Z,92.80
2022-10-29T15:15:19.080Z,92.55
2022-10-29T15:18:12.823Z,92.54
2022-10-29T15:20:39.117Z,93.08
2022-10-29T15:23:28.381Z,92.72
2022-10-29T15:26:02.642Z,92.85
2022-10-29T15:28:31.841Z,92.85
2022-10-29T15:31:02.400Z,92.69
2022-10-29T15:33:30.155Z,92.67
2022-10-29T15:36:00.405Z,92.83
2022-10-29T15:38:52.343Z,92.96
2022-10-29T15:41:46.202Z,93.20
2022-10-29T15:44:29.826Z,93.25
2022-10-29T15:46:59.214Z,93.43
2022-10-29T15:49:34.739Z,93.35
2022-10-29T15:52:01.214Z,92.79
2022-10-29T15:55:10.759Z,93.21
2022-10-29T15:57:37.394Z,92.69
2022-10-29T16:00:06.621Z,92.46
2022-10-29T16:02:37.247Z,91.95
2022-10-29T16:05:06.760Z,91.85
2022-10-29T16:07:37.214Z,91.97
2022-10-29T16:10:03.810Z,91.92
2022-10-29T16:12:31.186Z,92.11
2022-10-29T16:14:58.563Z,92.27
2022-10-29T16:17:43.781Z,92.13
2022-10-29T16:20:19.277Z,91.99
2022-10-29T16:22:48.199Z,91.95
2022-10-29T16:25:20.167Z,91.99
2022-10-29T16:27:46.537Z,91.92
2022-10-29T16:30:13.416Z,92.13
2022-10-29T16:32:41.125Z,92.08
2022-10-29T16:35:20.754Z,91.62
2022-10-29T16:37:47.828Z,91.99
2022-10-29T16:40:14.523Z,91.76
2022-10-29T16:42:41.287Z,92.13
2022-10-29T16:45:12.570Z,92.26
2022-10-29T16:47:38.968Z,92.45
2022-10-29T16:50:06.258Z,92.21
2022-10-29T16:52:32.932Z,92.13
2022-10-29T16:54:59.518Z,92.33
2022-10-29T16:57:26.439Z,92.32
2022-10-29T16:59:52.792Z,92.20
2022-10-29T17:02:19.136Z,92.30
2022-10-29T17:04:45.530Z,92.32
2022-10-29T17:07:11.902Z,92.55
2022-10-29T17:09:38.527Z,92.47
2022-10-29T17:12:05.164Z,92.60
2022-10-29T17:14:31.556Z,92.28
2022-10-29T17:16:58.463Z,92.12
2022-10-29T17:19:24.950Z,92.11
2022-10-29T17:21:51.554Z,92.00
2022-10-29T17:24:17.903Z,92.37
2022-10-29T17:26:44.473Z,92.35
2022-10-29T17:29:11.170Z,92.24
2022-10-29T17:31:37.519Z,92.41
2022-10-29T17:34:03.948Z,92.34
2022-10-29T17:36:30.309Z,92.42
2022-10-29T17:38:56.674Z,92.49
2022-10-29T17:41:23.172Z,92.41
2022-10-29T17:43:49.522Z,92.50
2022-10-29T17:46:17.923Z,92.60
2022-10-29T17:48:44.314Z,92.54
2022-10-29T17:51:10.665Z,92.54
2022-10-29T17:53:38.025Z,92.42
2022-10-29T17:56:04.643Z,92.36
2022-10-29T17:58:31.133Z,92.73
2022-10-29T18:01:09.154Z,92.50
2022-10-29T18:03:36.757Z,92.46
2022-10-29T18:06:06.458Z,92.36
2022-10-29T18:08:35.562Z,92.45
2022-10-29T18:11:07.642Z,92.68
2022-10-29T18:13:39.234Z,92.45
2022-10-29T18:16:05.941Z,92.59
2022-10-29T18:18:48.144Z,92.73
2022-10-29T18:21:25.195Z,92.53
2022-10-29T18:23:52.186Z,92.58
2022-10-29T18:26:24.548Z,92.60
2022-10-29T18:28:52.439Z,92.91
2022-10-29T18:31:19.445Z,93.00
2022-10-29T18:33:45.958Z,93.25
2022-10-29T18:36:12.352Z,92.99
2022-10-29T18:38:39.723Z,92.95
2022-10-29T18:41:06.952Z,92.87
2022-10-29T18:43:35.214Z,93.33
2022-10-29T18:46:06.822Z,93.05
2022-10-29T18:48:41.370Z,92.99
2022-10-29T18:51:12.115Z,92.96
2022-10-29T18:53:39.145Z,93.13
2022-10-29T18:56:14.766Z,93.11
2022-10-29T18:58:42.127Z,93.08
2022-10-29T19:01:32.054Z,93.17
2022-10-29T19:04:07.256Z,93.22
2022-10-29T19:06:36.049Z,93.11
2022-10-29T19:09:07.791Z,93.26
2022-10-29T19:11:34.907Z,93.37
2022-10-29T19:14:04.266Z,93.46
2022-10-29T19:16:32.144Z,93.76
2022-10-29T19:19:12.045Z,93.83
2022-10-29T19:21:39.711Z,93.82
2022-10-29T19:24:07.539Z,94.08
2022-10-29T19:26:35.984Z,93.83
2022-10-29T19:29:04.763Z,93.64
2022-10-29T19:31:33.403Z,93.87
2022-10-29T19:34:02.837Z,93.35
2022-10-29T19:36:30.212Z,93.47
2022-10-29T19:38:57.049Z,93.51
2022-10-29T19:41:24.075Z,93.63
2022-10-29T19:43:50.777Z,93.70
2022-10-29T19:46:19.637Z,93.90
2022-10-29T19:48:50.996Z,94.03
2022-10-29T19:51:18.264Z,93.87
2022-10-29T19:53:45.260Z,94.37
2022-10-29T19:56:13.997Z,94.08
2022-10-29T19:58:40.463Z,94.21
2022-10-29T20:01:18.848Z,94.21
2022-10-29T20:03:46.576Z,94.33
2022-10-29T20:06:13.859Z,94.41
2022-10-29T20:08:40.538Z,94.56
2022-10-29T20:11:07.511Z,94.46
2022-10-29T20:13:34.501Z,94.40
2022-10-29T20:16:07.349Z,94.28
2022-10-29T20:18:35.149Z,94.45
2022-10-29T20:21:01.621Z,94.08
2022-10-29T20:23:29.409Z,94.41
2022-10-29T20:25:55.876Z,94.53
2022-10-29T20:28:22.309Z,94.53
2022-10-29T20:30:48.916Z,94.44
2022-10-29T20:33:15.419Z,94.17
2022-10-29T20:35:41.899Z,93.98
2022-10-29T20:38:08.447Z,94.08
2022-10-29T20:40:34.975Z,94.22
2022-10-29T20:43:01.583Z,94.21
2022-10-29T20:45:28.233Z,94.26
2022-10-29T20:47:54.895Z,94.16
2022-10-29T20:50:21.523Z,94.31
2022-10-29T20:52:48.990Z,94.17
2022-10-29T20:55:16.123Z,94.17
2022-10-29T20:57:42.577Z,94.44
2022-10-29T21:00:09.761Z,94.22
2022-10-29T21:02:36.255Z,94.12
2022-10-29T21:05:02.918Z,94.23
2022-10-29T21:07:29.279Z,93.98
2022-10-29T21:09:55.802Z,94.01
2022-10-29T21:12:22.200Z,93.46
2022-10-29T21:14:48.600Z,93.67
2022-10-29T21:17:15.030Z,93.94
2022-10-29T21:19:41.408Z,93.78
2022-10-29T21:22:10.954Z,93.65
2022-10-29T21:24:39.194Z,93.42
2022-10-29T21:27:06.894Z,93.16
2022-10-29T21:29:53.318Z,93.44
2022-10-29T21:32:19.793Z,93.72
2022-10-29T21:34:47.386Z,93.48
2022-10-29T21:37:13.784Z,93.46
2022-10-29T21:39:40.181Z,93.23
2022-10-29T21:42:06.624Z,93.46
2022-10-29T21:44:33.073Z,93.34
2022-10-29T21:46:59.471Z,93.46
2022-10-29T21:49:25.922Z,93.38
2022-10-29T21:51:52.392Z,93.40
2022-10-29T21:54:20.072Z,93.25
2022-10-29T21:56:48.525Z,93.24
2022-10-29T21:59:25.420Z,93.42
2022-10-29T22:01:54.011Z,93.30
2022-10-29T22:04:43.245Z,93.14
2022-10-29T22:07:09.838Z,92.97
2022-10-29T22:09:36.318Z,93.40
2022-10-29T22:12:03.887Z,93.67
2022-10-29T22:14:30.242Z,93.21
2022-10-29T22:16:57.747Z,93.14
2022-10-29T22:19:29.196Z,93.30
2022-10-29T22:21:55.965Z,93.01
2022-10-29T22:24:22.295Z,93.21
2022-10-29T22:26:48.623Z,93.20
2022-10-29T22:29:14.966Z,93.13
2022-10-29T22:31:42.315Z,93.28
2022-10-29T22:34:08.667Z,93.12
2022-10-29T22:36:35.061Z,93.45
2022-10-29T22:39:02.141Z,93.38
2022-10-29T22:41:29.778Z,92.83
2022-10-29T22:43:59.012Z,93.18
2022-10-29T22:46:33.389Z,93.51
2022-10-29T22:49:19.121Z,93.52
2022-10-29T22:51:45.603Z,93.50
2022-10-29T22:54:18.163Z,93.10
2022-10-29T22:56:50.598Z,93.10
2022-10-29T22:59:21.043Z,93.18
2022-10-29T23:01:53.858Z,92.72
2022-10-29T23:04:25.769Z,92.79
2022-10-29T23:06:52.147Z,93.19
2022-10-29T23:09:18.618Z,93.00
2022-10-29T23:11:44.999Z,92.80
2022-10-29T23:14:12.367Z,93.01
2022-10-29T23:16:38.735Z,92.60
2022-10-29T23:19:07.101Z,92.74
2022-10-29T23:21:33.647Z,92.83
2022-10-29T23:24:02.297Z,92.83
2022-10-29T23:26:29.171Z,93.06
2022-10-29T23:28:57.835Z,92.65
2022-10-29T23:31:27.186Z,93.13
2022-10-29T23:33:55.521Z,92.77
2022-10-29T23:36:23.644Z,92.59
2022-10-29T23:39:01.743Z,92.39
2022-10-29T23:41:31.011Z,92.89
2022-10-29T23:43:57.900Z,92.75
2022-10-29T23:46:24.428Z,92.86
2022-10-29T23:49:04.955Z,92.56
2022-10-29T23:51:36.520Z,92.93
2022-10-29T23:54:03.048Z,92.71
2022-10-29T23:56:29.507Z,92.81
2022-10-29T23:59:06.018Z,93.01
